sensor_id;sensor_type;location;lat;lon;timestamp;P1;durP1;ratioP1;P2;durP2;ratioP2
75892;SDS011;64572;50.950;3.676;2022-11-20T00:01:15;71.88;;;31.80;;
75892;SDS011;64572;50.950;3.676;2022-11-20T00:03:43;72.85;;;30.95;;
75892;SDS011;64572;50.950;3.676;2022-11-20T00:06:09;67.70;;;30.30;;
75892;SDS011;64572;50.950;3.676;2022-11-20T00:08:39;75.20;;;32.63;;
75892;SDS011;64572;50.950;3.676;2022-11-20T00:11:09;73.45;;;32.13;;
75892;SDS011;64572;50.950;3.676;2022-11-20T00:13:37;73.18;;;32.85;;
75892;SDS011;64572;50.950;3.676;2022-11-20T00:16:04;76.45;;;33.50;;
75892;SDS011;64572;50.950;3.676;2022-11-20T00:18:32;81.47;;;33.45;;
75892;SDS011;64572;50.950;3.676;2022-11-20T00:21:02;76.40;;;32.53;;
75892;SDS011;64572;50.950;3.676;2022-11-20T00:23:30;73.47;;;34.03;;
75892;SDS011;64572;50.950;3.676;2022-11-20T00:25:56;78.97;;;33.50;;
75892;SDS011;64572;50.950;3.676;2022-11-20T00:28:25;74.72;;;32.55;;
75892;SDS011;64572;50.950;3.676;2022-11-20T00:30:51;68.57;;;31.40;;
75892;SDS011;64572;50.950;3.676;2022-11-20T00:33:16;70.03;;;31.10;;
75892;SDS011;64572;50.950;3.676;2022-11-20T00:35:42;74.55;;;33.70;;
75892;SDS011;64572;50.950;3.676;2022-11-20T00:38:07;69.75;;;31.35;;
75892;SDS011;64572;50.950;3.676;2022-11-20T00:40:33;77.03;;;33.25;;
75892;SDS011;64572;50.950;3.676;2022-11-20T00:42:59;74.95;;;31.75;;
75892;SDS011;64572;50.950;3.676;2022-11-20T00:45:24;69.93;;;30.88;;
75892;SDS011;64572;50.950;3.676;2022-11-20T00:47:50;75.25;;;31.92;;
75892;SDS011;64572;50.950;3.676;2022-11-20T00:50:16;68.75;;;31.70;;
75892;SDS011;64572;50.950;3.676;2022-11-20T00:52:41;73.95;;;32.00;;
75892;SDS011;64572;50.950;3.676;2022-11-20T00:55:07;72.88;;;32.17;;
75892;SDS011;64572;50.950;3.676;2022-11-20T00:57:32;74.18;;;32.15;;
75892;SDS011;64572;50.950;3.676;2022-11-20T00:59:58;70.95;;;30.98;;
75892;SDS011;64572;50.950;3.676;2022-11-20T01:02:24;69.15;;;31.15;;
75892;SDS011;64572;50.950;3.676;2022-11-20T01:04:49;66.80;;;31.58;;
75892;SDS011;64572;50.950;3.676;2022-11-20T01:07:15;71.47;;;31.98;;
75892;SDS011;64572;50.950;3.676;2022-11-20T01:09:41;68.50;;;31.35;;
75892;SDS011;64572;50.950;3.676;2022-11-20T01:12:06;69.75;;;30.73;;
75892;SDS011;64572;50.950;3.676;2022-11-20T01:14:32;69.88;;;32.03;;
75892;SDS011;64572;50.950;3.676;2022-11-20T01:16:57;71.53;;;32.45;;
75892;SDS011;64572;50.950;3.676;2022-11-20T01:19:23;73.85;;;30.38;;
75892;SDS011;64572;50.950;3.676;2022-11-20T01:21:50;69.38;;;32.42;;
75892;SDS011;64572;50.950;3.676;2022-11-20T01:24:18;75.10;;;32.97;;
75892;SDS011;64572;50.950;3.676;2022-11-20T01:26:47;73.22;;;33.10;;
75892;SDS011;64572;50.950;3.676;2022-11-20T01:29:15;70.68;;;33.25;;
75892;SDS011;64572;50.950;3.676;2022-11-20T01:31:44;71.43;;;31.20;;
75892;SDS011;64572;50.950;3.676;2022-11-20T01:34:11;70.15;;;32.03;;
75892;SDS011;64572;50.950;3.676;2022-11-20T01:39:14;77.88;;;32.25;;
75892;SDS011;64572;50.950;3.676;2022-11-20T01:41:43;83.72;;;33.92;;
75892;SDS011;64572;50.950;3.676;2022-11-20T01:47:30;81.50;;;33.38;;
75892;SDS011;64572;50.950;3.676;2022-11-20T01:50:03;83.68;;;35.05;;
75892;SDS011;64572;50.950;3.676;2022-11-20T01:52:41;78.00;;;32.33;;
75892;SDS011;64572;50.950;3.676;2022-11-20T01:55:11;74.90;;;32.45;;
75892;SDS011;64572;50.950;3.676;2022-11-20T01:57:42;77.15;;;33.42;;
75892;SDS011;64572;50.950;3.676;2022-11-20T02:00:11;87.43;;;34.00;;
75892;SDS011;64572;50.950;3.676;2022-11-20T02:02:40;77.20;;;33.75;;
75892;SDS011;64572;50.950;3.676;2022-11-20T02:05:27;78.60;;;34.45;;
75892;SDS011;64572;50.950;3.676;2022-11-20T02:07:57;76.95;;;33.50;;
75892;SDS011;64572;50.950;3.676;2022-11-20T02:10:24;76.20;;;32.80;;
75892;SDS011;64572;50.950;3.676;2022-11-20T02:12:50;75.38;;;32.30;;
75892;SDS011;64572;50.950;3.676;2022-11-20T02:15:35;68.72;;;30.45;;
75892;SDS011;64572;50.950;3.676;2022-11-20T02:18:00;71.05;;;31.45;;
75892;SDS011;64572;50.950;3.676;2022-11-20T02:20:26;67.28;;;30.73;;
75892;SDS011;64572;50.950;3.676;2022-11-20T02:25:29;78.47;;;33.53;;
75892;SDS011;64572;50.950;3.676;2022-11-20T02:27:57;69.13;;;31.13;;
75892;SDS011;64572;50.950;3.676;2022-11-20T02:30:23;80.60;;;33.28;;
75892;SDS011;64572;50.950;3.676;2022-11-20T02:32:49;79.70;;;32.95;;
75892;SDS011;64572;50.950;3.676;2022-11-20T02:37:43;72.93;;;33.15;;
75892;SDS011;64572;50.950;3.676;2022-11-20T02:40:09;75.70;;;31.67;;
75892;SDS011;64572;50.950;3.676;2022-11-20T02:42:36;70.05;;;30.55;;
75892;SDS011;64572;50.950;3.676;2022-11-20T02:45:03;80.20;;;31.88;;
75892;SDS011;64572;50.950;3.676;2022-11-20T02:47:30;78.10;;;33.65;;
75892;SDS011;64572;50.950;3.676;2022-11-20T02:49:56;75.38;;;32.53;;
75892;SDS011;64572;50.950;3.676;2022-11-20T02:52:21;72.05;;;32.35;;
75892;SDS011;64572;50.950;3.676;2022-11-20T02:54:47;75.18;;;33.97;;
75892;SDS011;64572;50.950;3.676;2022-11-20T02:57:13;85.30;;;34.65;;
75892;SDS011;64572;50.950;3.676;2022-11-20T02:59:38;76.18;;;33.50;;
75892;SDS011;64572;50.950;3.676;2022-11-20T03:02:04;75.28;;;32.28;;
75892;SDS011;64572;50.950;3.676;2022-11-20T03:04:30;78.28;;;33.58;;
75892;SDS011;64572;50.950;3.676;2022-11-20T03:06:55;78.90;;;33.55;;
75892;SDS011;64572;50.950;3.676;2022-11-20T03:09:21;82.57;;;35.03;;
75892;SDS011;64572;50.950;3.676;2022-11-20T03:11:47;84.10;;;34.67;;
75892;SDS011;64572;50.950;3.676;2022-11-20T03:14:12;84.55;;;34.47;;
75892;SDS011;64572;50.950;3.676;2022-11-20T03:16:39;78.22;;;34.88;;
75892;SDS011;64572;50.950;3.676;2022-11-20T03:19:05;89.70;;;35.90;;
75892;SDS011;64572;50.950;3.676;2022-11-20T03:21:34;89.32;;;36.50;;
75892;SDS011;64572;50.950;3.676;2022-11-20T03:24:00;85.13;;;36.58;;
75892;SDS011;64572;50.950;3.676;2022-11-20T03:26:26;87.22;;;35.88;;
75892;SDS011;64572;50.950;3.676;2022-11-20T03:28:53;86.80;;;37.30;;
75892;SDS011;64572;50.950;3.676;2022-11-20T03:31:22;100.00;;;38.80;;
75892;SDS011;64572;50.950;3.676;2022-11-20T03:33:50;94.10;;;37.92;;
75892;SDS011;64572;50.950;3.676;2022-11-20T03:36:16;100.15;;;38.47;;
75892;SDS011;64572;50.950;3.676;2022-11-20T03:38:43;101.63;;;37.93;;
75892;SDS011;64572;50.950;3.676;2022-11-20T03:41:16;97.55;;;39.75;;
75892;SDS011;64572;50.950;3.676;2022-11-20T03:44:03;87.10;;;37.83;;
75892;SDS011;64572;50.950;3.676;2022-11-20T03:46:30;93.55;;;37.78;;
75892;SDS011;64572;50.950;3.676;2022-11-20T03:48:56;96.28;;;37.38;;
75892;SDS011;64572;50.950;3.676;2022-11-20T03:51:23;95.15;;;37.17;;
75892;SDS011;64572;50.950;3.676;2022-11-20T03:53:51;97.40;;;38.47;;
75892;SDS011;64572;50.950;3.676;2022-11-20T03:56:19;103.97;;;38.42;;
75892;SDS011;64572;50.950;3.676;2022-11-20T03:58:47;109.25;;;39.67;;
75892;SDS011;64572;50.950;3.676;2022-11-20T04:01:14;122.60;;;41.60;;
75892;SDS011;64572;50.950;3.676;2022-11-20T04:03:44;118.80;;;41.10;;
75892;SDS011;64572;50.950;3.676;2022-11-20T04:06:12;119.55;;;42.00;;
75892;SDS011;64572;50.950;3.676;2022-11-20T04:08:39;125.05;;;42.85;;
75892;SDS011;64572;50.950;3.676;2022-11-20T04:13:42;127.85;;;42.17;;
75892;SDS011;64572;50.950;3.676;2022-11-20T04:16:11;141.80;;;44.55;;
75892;SDS011;64572;50.950;3.676;2022-11-20T04:18:37;137.90;;;41.05;;
75892;SDS011;64572;50.950;3.676;2022-11-20T04:21:03;134.23;;;42.50;;
75892;SDS011;64572;50.950;3.676;2022-11-20T04:23:29;130.85;;;43.17;;
75892;SDS011;64572;50.950;3.676;2022-11-20T04:26:00;134.18;;;43.13;;
75892;SDS011;64572;50.950;3.676;2022-11-20T04:28:27;130.43;;;41.42;;
75892;SDS011;64572;50.950;3.676;2022-11-20T04:30:52;128.00;;;41.55;;
75892;SDS011;64572;50.950;3.676;2022-11-20T04:33:18;122.70;;;41.63;;
75892;SDS011;64572;50.950;3.676;2022-11-20T04:35:44;125.93;;;40.80;;
75892;SDS011;64572;50.950;3.676;2022-11-20T04:38:12;128.38;;;42.65;;
75892;SDS011;64572;50.950;3.676;2022-11-20T04:40:38;130.95;;;40.78;;
75892;SDS011;64572;50.950;3.676;2022-11-20T04:43:04;134.10;;;42.67;;
75892;SDS011;64572;50.950;3.676;2022-11-20T04:45:29;118.25;;;41.90;;
75892;SDS011;64572;50.950;3.676;2022-11-20T04:47:55;125.00;;;43.00;;
75892;SDS011;64572;50.950;3.676;2022-11-20T04:50:20;132.10;;;40.00;;
75892;SDS011;64572;50.950;3.676;2022-11-20T04:52:46;130.57;;;42.33;;
75892;SDS011;64572;50.950;3.676;2022-11-20T04:55:12;118.43;;;41.47;;
75892;SDS011;64572;50.950;3.676;2022-11-20T04:57:38;116.20;;;39.42;;
75892;SDS011;64572;50.950;3.676;2022-11-20T05:00:04;120.25;;;40.67;;
75892;SDS011;64572;50.950;3.676;2022-11-20T05:02:30;133.70;;;39.80;;
75892;SDS011;64572;50.950;3.676;2022-11-20T05:04:56;124.90;;;40.70;;
75892;SDS011;64572;50.950;3.676;2022-11-20T05:07:22;123.20;;;38.83;;
75892;SDS011;64572;50.950;3.676;2022-11-20T05:09:48;119.22;;;40.30;;
75892;SDS011;64572;50.950;3.676;2022-11-20T05:12:13;118.97;;;40.00;;
75892;SDS011;64572;50.950;3.676;2022-11-20T05:14:39;109.43;;;38.67;;
75892;SDS011;64572;50.950;3.676;2022-11-20T05:17:04;124.47;;;39.30;;
75892;SDS011;64572;50.950;3.676;2022-11-20T05:19:30;126.07;;;40.28;;
75892;SDS011;64572;50.950;3.676;2022-11-20T05:21:56;110.95;;;35.50;;
75892;SDS011;64572;50.950;3.676;2022-11-20T05:24:21;114.90;;;37.83;;
75892;SDS011;64572;50.950;3.676;2022-11-20T05:26:47;117.50;;;38.45;;
75892;SDS011;64572;50.950;3.676;2022-11-20T05:29:12;126.85;;;39.65;;
75892;SDS011;64572;50.950;3.676;2022-11-20T05:31:39;119.43;;;37.30;;
75892;SDS011;64572;50.950;3.676;2022-11-20T05:34:05;112.70;;;36.70;;
75892;SDS011;64572;50.950;3.676;2022-11-20T05:36:31;111.00;;;37.55;;
75892;SDS011;64572;50.950;3.676;2022-11-20T05:38:57;105.13;;;35.55;;
75892;SDS011;64572;50.950;3.676;2022-11-20T05:41:22;103.40;;;35.53;;
75892;SDS011;64572;50.950;3.676;2022-11-20T05:43:48;109.75;;;36.28;;
75892;SDS011;64572;50.950;3.676;2022-11-20T05:46:15;97.88;;;34.50;;
75892;SDS011;64572;50.950;3.676;2022-11-20T05:48:45;99.07;;;35.72;;
75892;SDS011;64572;50.950;3.676;2022-11-20T05:51:13;102.65;;;37.33;;
75892;SDS011;64572;50.950;3.676;2022-11-20T05:53:40;90.43;;;33.45;;
75892;SDS011;64572;50.950;3.676;2022-11-20T05:56:10;92.00;;;33.88;;
75892;SDS011;64572;50.950;3.676;2022-11-20T05:58:38;97.60;;;34.25;;
75892;SDS011;64572;50.950;3.676;2022-11-20T06:01:08;105.80;;;33.85;;
75892;SDS011;64572;50.950;3.676;2022-11-20T06:03:37;105.72;;;34.70;;
75892;SDS011;64572;50.950;3.676;2022-11-20T06:06:04;89.63;;;33.65;;
75892;SDS011;64572;50.950;3.676;2022-11-20T06:08:30;91.50;;;34.15;;
75892;SDS011;64572;50.950;3.676;2022-11-20T06:10:57;87.88;;;32.50;;
75892;SDS011;64572;50.950;3.676;2022-11-20T06:13:22;90.70;;;34.63;;
75892;SDS011;64572;50.950;3.676;2022-11-20T06:15:52;99.97;;;34.25;;
75892;SDS011;64572;50.950;3.676;2022-11-20T06:18:18;97.43;;;35.60;;
75892;SDS011;64572;50.950;3.676;2022-11-20T06:20:45;91.55;;;33.83;;
75892;SDS011;64572;50.950;3.676;2022-11-20T06:23:11;94.57;;;33.75;;
75892;SDS011;64572;50.950;3.676;2022-11-20T06:25:41;102.78;;;34.28;;
75892;SDS011;64572;50.950;3.676;2022-11-20T06:28:07;86.80;;;34.13;;
75892;SDS011;64572;50.950;3.676;2022-11-20T06:30:34;99.90;;;34.33;;
75892;SDS011;64572;50.950;3.676;2022-11-20T06:33:00;87.68;;;33.10;;
75892;SDS011;64572;50.950;3.676;2022-11-20T06:35:25;95.00;;;32.55;;
75892;SDS011;64572;50.950;3.676;2022-11-20T06:37:51;91.18;;;32.90;;
75892;SDS011;64572;50.950;3.676;2022-11-20T06:40:17;86.28;;;32.65;;
75892;SDS011;64572;50.950;3.676;2022-11-20T06:42:42;85.55;;;31.77;;
75892;SDS011;64572;50.950;3.676;2022-11-20T06:45:08;87.57;;;32.50;;
75892;SDS011;64572;50.950;3.676;2022-11-20T06:47:34;90.75;;;32.70;;
75892;SDS011;64572;50.950;3.676;2022-11-20T06:50:00;96.53;;;33.03;;
75892;SDS011;64572;50.950;3.676;2022-11-20T06:52:26;92.25;;;32.72;;
75892;SDS011;64572;50.950;3.676;2022-11-20T06:54:51;95.88;;;34.00;;
75892;SDS011;64572;50.950;3.676;2022-11-20T06:57:17;100.47;;;33.60;;
75892;SDS011;64572;50.950;3.676;2022-11-20T06:59:42;95.57;;;33.47;;
75892;SDS011;64572;50.950;3.676;2022-11-20T07:02:11;92.57;;;32.88;;
75892;SDS011;64572;50.950;3.676;2022-11-20T07:04:37;101.15;;;34.80;;
75892;SDS011;64572;50.950;3.676;2022-11-20T07:07:04;92.68;;;33.28;;
75892;SDS011;64572;50.950;3.676;2022-11-20T07:09:31;93.65;;;32.40;;
75892;SDS011;64572;50.950;3.676;2022-11-20T07:11:57;96.45;;;34.17;;
75892;SDS011;64572;50.950;3.676;2022-11-20T07:14:22;104.97;;;34.78;;
75892;SDS011;64572;50.950;3.676;2022-11-20T07:16:48;111.88;;;35.00;;
75892;SDS011;64572;50.950;3.676;2022-11-20T07:19:14;102.25;;;33.78;;
75892;SDS011;64572;50.950;3.676;2022-11-20T07:21:39;101.10;;;34.55;;
75892;SDS011;64572;50.950;3.676;2022-11-20T07:24:05;117.05;;;35.42;;
75892;SDS011;64572;50.950;3.676;2022-11-20T07:26:31;110.25;;;35.42;;
75892;SDS011;64572;50.950;3.676;2022-11-20T07:28:56;115.05;;;35.38;;
75892;SDS011;64572;50.950;3.676;2022-11-20T07:31:22;111.25;;;36.78;;
75892;SDS011;64572;50.950;3.676;2022-11-20T07:33:48;122.65;;;35.95;;
75892;SDS011;64572;50.950;3.676;2022-11-20T07:36:13;116.00;;;35.47;;
75892;SDS011;64572;50.950;3.676;2022-11-20T07:38:39;108.22;;;35.55;;
75892;SDS011;64572;50.950;3.676;2022-11-20T07:41:04;101.95;;;35.15;;
75892;SDS011;64572;50.950;3.676;2022-11-20T07:43:30;106.13;;;35.28;;
75892;SDS011;64572;50.950;3.676;2022-11-20T07:45:56;118.45;;;38.63;;
75892;SDS011;64572;50.950;3.676;2022-11-20T07:48:23;138.13;;;43.28;;
75892;SDS011;64572;50.950;3.676;2022-11-20T07:50:49;108.80;;;35.90;;
75892;SDS011;64572;50.950;3.676;2022-11-20T07:53:14;120.07;;;37.70;;
75892;SDS011;64572;50.950;3.676;2022-11-20T07:55:45;100.07;;;34.50;;
75892;SDS011;64572;50.950;3.676;2022-11-20T07:58:11;107.68;;;37.20;;
75892;SDS011;64572;50.950;3.676;2022-11-20T08:00:37;98.53;;;35.13;;
75892;SDS011;64572;50.950;3.676;2022-11-20T08:03:03;109.68;;;39.97;;
75892;SDS011;64572;50.950;3.676;2022-11-20T08:05:29;103.57;;;35.65;;
75892;SDS011;64572;50.950;3.676;2022-11-20T08:07:55;102.50;;;33.25;;
75892;SDS011;64572;50.950;3.676;2022-11-20T08:10:20;98.10;;;33.65;;
75892;SDS011;64572;50.950;3.676;2022-11-20T08:12:47;94.97;;;34.28;;
75892;SDS011;64572;50.950;3.676;2022-11-20T08:15:32;94.45;;;32.53;;
75892;SDS011;64572;50.950;3.676;2022-11-20T08:18:08;93.63;;;31.27;;
75892;SDS011;64572;50.950;3.676;2022-11-20T08:20:37;87.13;;;31.38;;
75892;SDS011;64572;50.950;3.676;2022-11-20T08:23:06;89.45;;;32.22;;
75892;SDS011;64572;50.950;3.676;2022-11-20T08:25:33;92.47;;;30.42;;
75892;SDS011;64572;50.950;3.676;2022-11-20T08:28:01;89.40;;;31.70;;
75892;SDS011;64572;50.950;3.676;2022-11-20T08:30:32;85.22;;;30.83;;
75892;SDS011;64572;50.950;3.676;2022-11-20T08:33:05;83.40;;;31.05;;
75892;SDS011;64572;50.950;3.676;2022-11-20T08:35:36;82.65;;;29.45;;
75892;SDS011;64572;50.950;3.676;2022-11-20T08:38:03;72.23;;;28.87;;
75892;SDS011;64572;50.950;3.676;2022-11-20T08:40:30;71.30;;;27.67;;
75892;SDS011;64572;50.950;3.676;2022-11-20T08:42:56;72.70;;;27.52;;
75892;SDS011;64572;50.950;3.676;2022-11-20T08:45:23;75.80;;;28.67;;
75892;SDS011;64572;50.950;3.676;2022-11-20T08:47:48;69.53;;;26.67;;
75892;SDS011;64572;50.950;3.676;2022-11-20T08:50:15;72.63;;;29.10;;
75892;SDS011;64572;50.950;3.676;2022-11-20T08:52:42;63.53;;;24.48;;
75892;SDS011;64572;50.950;3.676;2022-11-20T08:55:08;71.05;;;28.10;;
75892;SDS011;64572;50.950;3.676;2022-11-20T08:57:35;62.85;;;25.45;;
75892;SDS011;64572;50.950;3.676;2022-11-20T09:00:02;60.83;;;25.25;;
75892;SDS011;64572;50.950;3.676;2022-11-20T09:02:30;65.20;;;26.08;;
75892;SDS011;64572;50.950;3.676;2022-11-20T09:04:57;65.70;;;30.88;;
75892;SDS011;64572;50.950;3.676;2022-11-20T09:07:23;60.75;;;25.98;;
75892;SDS011;64572;50.950;3.676;2022-11-20T09:09:49;58.60;;;24.73;;
75892;SDS011;64572;50.950;3.676;2022-11-20T09:12:14;54.78;;;23.05;;
75892;SDS011;64572;50.950;3.676;2022-11-20T09:14:40;63.05;;;23.73;;
75892;SDS011;64572;50.950;3.676;2022-11-20T09:17:06;50.67;;;22.60;;
75892;SDS011;64572;50.950;3.676;2022-11-20T09:19:32;50.55;;;22.60;;
75892;SDS011;64572;50.950;3.676;2022-11-20T09:21:58;49.70;;;21.83;;
75892;SDS011;64572;50.950;3.676;2022-11-20T09:24:25;45.63;;;21.08;;
75892;SDS011;64572;50.950;3.676;2022-11-20T09:26:51;48.42;;;20.15;;
75892;SDS011;64572;50.950;3.676;2022-11-20T09:29:17;45.88;;;19.08;;
75892;SDS011;64572;50.950;3.676;2022-11-20T09:31:42;43.75;;;19.23;;
75892;SDS011;64572;50.950;3.676;2022-11-20T09:34:08;42.65;;;17.95;;
75892;SDS011;64572;50.950;3.676;2022-11-20T09:36:34;38.15;;;16.63;;
75892;SDS011;64572;50.950;3.676;2022-11-20T09:39:00;36.42;;;16.52;;
75892;SDS011;64572;50.950;3.676;2022-11-20T09:44:16;34.20;;;15.48;;
75892;SDS011;64572;50.950;3.676;2022-11-20T09:46:54;38.17;;;15.32;;
75892;SDS011;64572;50.950;3.676;2022-11-20T09:54:49;30.73;;;11.63;;
75892;SDS011;64572;50.950;3.676;2022-11-20T09:57:19;29.70;;;11.13;;
75892;SDS011;64572;50.950;3.676;2022-11-20T10:00:00;26.30;;;9.95;;
75892;SDS011;64572;50.950;3.676;2022-11-20T10:02:30;23.25;;;10.18;;
75892;SDS011;64572;50.950;3.676;2022-11-20T10:05:41;28.05;;;10.25;;
75892;SDS011;64572;50.950;3.676;2022-11-20T10:10:47;25.73;;;9.70;;
75892;SDS011;64572;50.950;3.676;2022-11-20T10:16:29;23.80;;;7.30;;
75892;SDS011;64572;50.950;3.676;2022-11-20T10:32:37;22.88;;;6.50;;
75892;SDS011;64572;50.950;3.676;2022-11-20T10:37:44;20.35;;;6.53;;
75892;SDS011;64572;50.950;3.676;2022-11-20T10:42:48;16.70;;;5.70;;
75892;SDS011;64572;50.950;3.676;2022-11-20T10:47:50;15.35;;;5.43;;
75892;SDS011;64572;50.950;3.676;2022-11-20T10:50:20;23.70;;;6.55;;
75892;SDS011;64572;50.950;3.676;2022-11-20T10:53:14;18.52;;;5.18;;
75892;SDS011;64572;50.950;3.676;2022-11-20T11:03:30;18.05;;;5.38;;
75892;SDS011;64572;50.950;3.676;2022-11-20T11:06:02;16.15;;;5.13;;
75892;SDS011;64572;50.950;3.676;2022-11-20T11:08:36;13.65;;;5.38;;
75892;SDS011;64572;50.950;3.676;2022-11-20T11:14:11;17.20;;;4.63;;
75892;SDS011;64572;50.950;3.676;2022-11-20T11:19:43;14.40;;;4.88;;
75892;SDS011;64572;50.950;3.676;2022-11-20T11:22:10;15.57;;;5.47;;
75892;SDS011;64572;50.950;3.676;2022-11-20T11:24:43;14.52;;;4.63;;
75892;SDS011;64572;50.950;3.676;2022-11-20T11:27:17;21.92;;;6.38;;
75892;SDS011;64572;50.950;3.676;2022-11-20T11:29:42;19.10;;;5.65;;
75892;SDS011;64572;50.950;3.676;2022-11-20T11:32:18;24.98;;;6.75;;
75892;SDS011;64572;50.950;3.676;2022-11-20T11:35:03;21.40;;;6.15;;
75892;SDS011;64572;50.950;3.676;2022-11-20T11:37:34;24.73;;;6.57;;
75892;SDS011;64572;50.950;3.676;2022-11-20T11:40:05;19.40;;;6.30;;
75892;SDS011;64572;50.950;3.676;2022-11-20T11:42:34;18.05;;;5.57;;
75892;SDS011;64572;50.950;3.676;2022-11-20T11:45:06;15.55;;;5.78;;
75892;SDS011;64572;50.950;3.676;2022-11-20T11:47:36;18.27;;;6.07;;
75892;SDS011;64572;50.950;3.676;2022-11-20T11:55:07;17.08;;;5.18;;
75892;SDS011;64572;50.950;3.676;2022-11-20T12:00:12;18.13;;;5.10;;
75892;SDS011;64572;50.950;3.676;2022-11-20T12:08:31;13.52;;;5.82;;
75892;SDS011;64572;50.950;3.676;2022-11-20T12:13:50;17.08;;;6.22;;
75892;SDS011;64572;50.950;3.676;2022-11-20T12:16:37;14.02;;;6.45;;
75892;SDS011;64572;50.950;3.676;2022-11-20T12:19:08;15.77;;;6.22;;
75892;SDS011;64572;50.950;3.676;2022-11-20T12:21:54;19.17;;;7.57;;
75892;SDS011;64572;50.950;3.676;2022-11-20T12:30:15;18.80;;;7.85;;
75892;SDS011;64572;50.950;3.676;2022-11-20T12:38:27;17.52;;;8.73;;
75892;SDS011;64572;50.950;3.676;2022-11-20T13:01:37;14.95;;;6.20;;
75892;SDS011;64572;50.950;3.676;2022-11-20T13:07:02;13.93;;;6.22;;
75892;SDS011;64572;50.950;3.676;2022-11-20T13:09:31;9.85;;;4.10;;
75892;SDS011;64572;50.950;3.676;2022-11-20T13:14:36;10.77;;;5.10;;
75892;SDS011;64572;50.950;3.676;2022-11-20T13:17:30;11.73;;;5.85;;
75892;SDS011;64572;50.950;3.676;2022-11-20T13:20:12;12.55;;;6.15;;
75892;SDS011;64572;50.950;3.676;2022-11-20T13:25:21;14.20;;;6.45;;
75892;SDS011;64572;50.950;3.676;2022-11-20T13:27:51;11.98;;;6.35;;
75892;SDS011;64572;50.950;3.676;2022-11-20T13:30:21;11.00;;;5.18;;
75892;SDS011;64572;50.950;3.676;2022-11-20T13:33:03;13.85;;;6.05;;
75892;SDS011;64572;50.950;3.676;2022-11-20T13:35:54;11.90;;;6.07;;
75892;SDS011;64572;50.950;3.676;2022-11-20T13:38:28;13.35;;;5.20;;
75892;SDS011;64572;50.950;3.676;2022-11-20T13:41:06;12.23;;;5.28;;
75892;SDS011;64572;50.950;3.676;2022-11-20T13:43:52;14.43;;;6.63;;
75892;SDS011;64572;50.950;3.676;2022-11-20T13:46:18;16.83;;;7.07;;
75892;SDS011;64572;50.950;3.676;2022-11-20T13:48:49;13.48;;;5.25;;
75892;SDS011;64572;50.950;3.676;2022-11-20T21:39:36;13.82;;;4.55;;
75892;SDS011;64572;50.950;3.676;2022-11-20T21:42:14;18.70;;;4.53;;
75892;SDS011;64572;50.950;3.676;2022-11-20T21:44:40;24.13;;;6.07;;
75892;SDS011;64572;50.950;3.676;2022-11-20T21:47:05;23.10;;;5.50;;
75892;SDS011;64572;50.950;3.676;2022-11-20T21:49:31;19.92;;;4.05;;
75892;SDS011;64572;50.950;3.676;2022-11-20T21:51:56;20.33;;;4.53;;
75892;SDS011;64572;50.950;3.676;2022-11-20T21:54:22;16.50;;;6.13;;
75892;SDS011;64572;50.950;3.676;2022-11-20T21:56:48;18.25;;;4.22;;
75892;SDS011;64572;50.950;3.676;2022-11-20T21:59:13;15.20;;;3.95;;
75892;SDS011;64572;50.950;3.676;2022-11-20T22:01:39;22.83;;;4.53;;
75892;SDS011;64572;50.950;3.676;2022-11-20T22:04:05;17.83;;;3.92;;
75892;SDS011;64572;50.950;3.676;2022-11-20T22:06:32;18.38;;;4.47;;
75892;SDS011;64572;50.950;3.676;2022-11-20T22:08:59;15.98;;;3.88;;
75892;SDS011;64572;50.950;3.676;2022-11-20T22:11:25;42.53;;;23.50;;
75892;SDS011;64572;50.950;3.676;2022-11-20T22:13:51;37.78;;;21.05;;
75892;SDS011;64572;50.950;3.676;2022-11-20T22:16:35;72.78;;;40.00;;
75892;SDS011;64572;50.950;3.676;2022-11-20T22:19:02;37.90;;;16.65;;
75892;SDS011;64572;50.950;3.676;2022-11-20T22:21:28;41.05;;;18.17;;
75892;SDS011;64572;50.950;3.676;2022-11-20T22:23:55;17.13;;;6.25;;
75892;SDS011;64572;50.950;3.676;2022-11-20T22:26:22;44.15;;;20.55;;
75892;SDS011;64572;50.950;3.676;2022-11-20T22:28:56;18.80;;;4.57;;
75892;SDS011;64572;50.950;3.676;2022-11-20T22:31:23;21.25;;;5.05;;
75892;SDS011;64572;50.950;3.676;2022-11-20T22:33:51;38.97;;;17.65;;
75892;SDS011;64572;50.950;3.676;2022-11-20T22:36:18;30.55;;;12.73;;
75892;SDS011;64572;50.950;3.676;2022-11-20T22:38:45;19.02;;;6.05;;
75892;SDS011;64572;50.950;3.676;2022-11-20T22:41:18;16.73;;;5.90;;
75892;SDS011;64572;50.950;3.676;2022-11-20T22:43:46;20.98;;;5.00;;
75892;SDS011;64572;50.950;3.676;2022-11-20T22:46:13;16.17;;;4.75;;
75892;SDS011;64572;50.950;3.676;2022-11-20T22:48:41;12.23;;;3.75;;
75892;SDS011;64572;50.950;3.676;2022-11-20T22:51:09;15.65;;;3.65;;
75892;SDS011;64572;50.950;3.676;2022-11-20T22:53:37;20.50;;;4.25;;
75892;SDS011;64572;50.950;3.676;2022-11-20T22:56:03;16.10;;;3.92;;
75892;SDS011;64572;50.950;3.676;2022-11-20T22:58:30;13.73;;;3.27;;
75892;SDS011;64572;50.950;3.676;2022-11-20T23:01:09;19.90;;;4.72;;
75892;SDS011;64572;50.950;3.676;2022-11-20T23:03:36;19.77;;;5.22;;
75892;SDS011;64572;50.950;3.676;2022-11-20T23:06:02;23.33;;;5.60;;
75892;SDS011;64572;50.950;3.676;2022-11-20T23:08:29;15.82;;;4.50;;
75892;SDS011;64572;50.950;3.676;2022-11-20T23:10:59;21.58;;;4.10;;
75892;SDS011;64572;50.950;3.676;2022-11-20T23:13:26;18.70;;;3.83;;
75892;SDS011;64572;50.950;3.676;2022-11-20T23:15:52;11.95;;;2.83;;
75892;SDS011;64572;50.950;3.676;2022-11-20T23:18:18;21.08;;;4.55;;
75892;SDS011;64572;50.950;3.676;2022-11-20T23:20:43;15.13;;;3.40;;
75892;SDS011;64572;50.950;3.676;2022-11-20T23:23:09;18.52;;;3.55;;
75892;SDS011;64572;50.950;3.676;2022-11-20T23:25:35;19.60;;;4.88;;
75892;SDS011;64572;50.950;3.676;2022-11-20T23:28:00;19.65;;;4.40;;
75892;SDS011;64572;50.950;3.676;2022-11-20T23:30:26;20.05;;;4.28;;
75892;SDS011;64572;50.950;3.676;2022-11-20T23:32:51;24.75;;;5.20;;
75892;SDS011;64572;50.950;3.676;2022-11-20T23:35:17;15.90;;;4.88;;
75892;SDS011;64572;50.950;3.676;2022-11-20T23:37:43;26.60;;;4.80;;
75892;SDS011;64572;50.950;3.676;2022-11-20T23:40:08;19.77;;;6.05;;
75892;SDS011;64572;50.950;3.676;2022-11-20T23:42:34;23.55;;;5.22;;
75892;SDS011;64572;50.950;3.676;2022-11-20T23:45:00;21.05;;;4.82;;
75892;SDS011;64572;50.950;3.676;2022-11-20T23:47:26;21.90;;;4.95;;
75892;SDS011;64572;50.950;3.676;2022-11-20T23:49:51;23.25;;;5.20;;
75892;SDS011;64572;50.950;3.676;2022-11-20T23:52:17;24.77;;;5.40;;
75892;SDS011;64572;50.950;3.676;2022-11-20T23:54:42;24.17;;;4.88;;
75892;SDS011;64572;50.950;3.676;2022-11-20T23:57:08;23.98;;;6.53;;
75892;SDS011;64572;50.950;3.676;2022-11-20T23:59:33;24.90;;;5.25;;
